createdAt,value
2022-12-24T00:01:29.333Z,1.70
2022-12-24T00:03:56.990Z,2.05
2022-12-24T00:06:25.331Z,1.50
2022-12-24T00:08:53.499Z,1.90
2022-12-24T00:11:22.133Z,2.20
2022-12-24T00:13:50.264Z,2.30
2022-12-24T00:16:19.458Z,1.30
2022-12-24T00:18:47.393Z,1.65
2022-12-24T00:21:15.868Z,1.98
2022-12-24T00:23:44.217Z,2.22
2022-12-24T00:26:12.601Z,1.80
2022-12-24T00:28:40.541Z,2.00
2022-12-24T00:31:09.993Z,1.90
2022-12-24T00:33:39.391Z,1.13
2022-12-24T00:36:08.361Z,2.60
2022-12-24T00:38:36.532Z,1.88
2022-12-24T00:41:06.232Z,1.85
2022-12-24T00:43:33.983Z,1.20
2022-12-24T00:46:01.681Z,1.70
2022-12-24T00:48:29.375Z,1.40
2022-12-24T00:50:58.394Z,3.05
2022-12-24T00:53:26.136Z,1.35
2022-12-24T00:55:53.793Z,1.55
2022-12-24T00:58:21.460Z,2.05
2022-12-24T01:00:49.140Z,1.45
2022-12-24T01:03:16.942Z,1.95
2022-12-24T01:05:43.740Z,2.22
2022-12-24T01:08:12.751Z,2.13
2022-12-24T01:10:40.530Z,2.53
2022-12-24T01:13:08.202Z,1.45
2022-12-24T01:15:38.416Z,2.50
2022-12-24T01:18:06.757Z,2.40
2022-12-24T01:20:34.404Z,3.80
2022-12-24T01:23:02.076Z,2.38
2022-12-24T01:25:31.140Z,2.35
2022-12-24T01:27:58.884Z,2.13
2022-12-24T01:30:26.900Z,2.35
2022-12-24T01:32:54.585Z,2.63
2022-12-24T01:35:22.275Z,2.83
2022-12-24T01:37:50.130Z,2.10
2022-12-24T01:40:32.923Z,3.35
2022-12-24T01:43:16.145Z,2.65
2022-12-24T01:45:47.620Z,2.47
2022-12-24T01:48:22.683Z,2.78
2022-12-24T01:50:53.286Z,2.45
2022-12-24T01:53:21.040Z,2.45
2022-12-24T01:55:49.713Z,2.30
2022-12-24T01:58:20.754Z,2.15
2022-12-24T02:00:48.990Z,2.60
2022-12-24T02:03:16.875Z,3.22
2022-12-24T02:05:48.856Z,2.75
2022-12-24T02:08:18.073Z,2.33
2022-12-24T02:10:45.868Z,3.83
2022-12-24T02:13:15.174Z,2.28
2022-12-24T02:15:57.686Z,2.65
2022-12-24T02:18:34.852Z,7.72
2022-12-24T02:21:24.275Z,3.50
2022-12-24T02:24:16.545Z,3.42
2022-12-24T02:27:12.327Z,2.70
2022-12-24T02:30:00.785Z,2.55
2022-12-24T02:32:37.509Z,2.80
2022-12-24T02:35:12.111Z,3.35
2022-12-24T02:37:44.212Z,2.50
2022-12-24T02:40:16.770Z,2.70
2022-12-24T02:42:48.628Z,2.40
2022-12-24T02:45:21.277Z,2.42
2022-12-24T02:47:50.837Z,3.00
2022-12-24T02:50:19.797Z,2.65
2022-12-24T02:52:48.929Z,2.92
2022-12-24T02:55:20.038Z,1.90
2022-12-24T02:58:02.777Z,2.20
2022-12-24T03:00:42.178Z,1.60
2022-12-24T03:03:28.407Z,2.40
2022-12-24T03:06:02.873Z,2.72
2022-12-24T03:08:42.350Z,2.38
2022-12-24T03:11:12.611Z,3.75
2022-12-24T03:13:41.347Z,2.50
2022-12-24T03:16:14.618Z,2.83
2022-12-24T03:18:46.406Z,2.35
2022-12-24T03:21:21.194Z,2.10
2022-12-24T03:23:49.403Z,2.30
2022-12-24T03:26:19.185Z,2.10
2022-12-24T03:28:47.656Z,1.90
2022-12-24T03:31:18.703Z,2.35
2022-12-24T03:33:46.741Z,2.17
2022-12-24T03:36:14.816Z,2.35
2022-12-24T03:38:42.811Z,3.05
2022-12-24T03:41:11.006Z,3.03
2022-12-24T03:43:38.700Z,2.10
2022-12-24T03:46:07.518Z,1.75
2022-12-24T03:48:37.032Z,1.85
2022-12-24T03:51:05.314Z,2.95
2022-12-24T03:53:33.299Z,1.85
2022-12-24T03:56:01.090Z,2.05
2022-12-24T03:58:28.784Z,1.98
2022-12-24T04:00:56.568Z,1.80
2022-12-24T04:03:24.383Z,2.65
2022-12-24T04:06:02.879Z,2.20
2022-12-24T04:08:30.688Z,2.40
2022-12-24T04:10:58.406Z,1.67
2022-12-24T04:13:26.124Z,2.63
2022-12-24T04:15:58.933Z,2.92
2022-12-24T04:18:26.858Z,2.40
2022-12-24T04:20:54.892Z,2.80
2022-12-24T04:23:24.022Z,3.78
2022-12-24T04:25:52.091Z,1.98
2022-12-24T04:28:19.783Z,3.55
2022-12-24T04:30:47.447Z,2.20
2022-12-24T04:33:15.181Z,1.40
2022-12-24T04:35:43.531Z,1.73
2022-12-24T04:38:11.513Z,1.70
2022-12-24T04:40:40.505Z,2.45
2022-12-24T04:43:08.178Z,2.13
2022-12-24T04:45:35.932Z,2.67
2022-12-24T04:48:03.800Z,1.92
2022-12-24T04:50:31.474Z,2.60
2022-12-24T04:53:00.056Z,3.28
2022-12-24T04:55:27.783Z,2.65
2022-12-24T04:57:56.812Z,2.28
2022-12-24T05:00:24.824Z,4.13
2022-12-24T05:02:52.641Z,2.10
2022-12-24T05:05:21.300Z,3.90
2022-12-24T05:07:48.997Z,2.60
2022-12-24T05:10:16.804Z,2.25
2022-12-24T05:12:44.474Z,1.45
2022-12-24T05:15:13.545Z,1.70
2022-12-24T05:17:41.239Z,2.45
2022-12-24T05:20:09.396Z,2.63
2022-12-24T05:22:51.121Z,1.63
2022-12-24T05:25:32.937Z,2.90
2022-12-24T05:28:00.620Z,3.22
2022-12-24T05:30:29.687Z,2.42
2022-12-24T05:32:57.434Z,2.00
2022-12-24T05:35:25.122Z,2.22
2022-12-24T05:37:52.832Z,2.28
2022-12-24T05:40:20.738Z,1.67
2022-12-24T05:42:48.449Z,1.80
2022-12-24T05:45:16.206Z,1.60
2022-12-24T05:47:45.879Z,1.63
2022-12-24T05:50:13.979Z,2.25
2022-12-24T05:52:41.663Z,1.90
2022-12-24T05:55:10.018Z,2.80
2022-12-24T05:57:37.706Z,1.85
2022-12-24T06:00:07.879Z,3.13
2022-12-24T06:02:54.539Z,1.77
2022-12-24T06:05:22.338Z,2.30
2022-12-24T06:07:50.040Z,1.95
2022-12-24T06:10:18.000Z,2.08
2022-12-24T06:12:45.730Z,1.63
2022-12-24T06:15:16.269Z,2.63
2022-12-24T06:17:48.119Z,1.80
2022-12-24T06:20:23.509Z,2.10
2022-12-24T06:22:53.614Z,2.42
2022-12-24T06:25:21.672Z,3.22
2022-12-24T06:27:49.731Z,2.28
2022-12-24T06:30:18.671Z,1.75
2022-12-24T06:32:46.589Z,3.45
2022-12-24T06:35:14.302Z,1.73
2022-12-24T06:37:43.386Z,2.58
2022-12-24T06:40:11.431Z,2.17
2022-12-24T06:42:39.152Z,2.20
2022-12-24T06:45:08.786Z,2.40
2022-12-24T06:47:37.175Z,3.55
2022-12-24T06:50:05.441Z,2.30
2022-12-24T06:52:33.322Z,2.20
2022-12-24T06:55:02.465Z,2.30
2022-12-24T06:57:31.705Z,1.70
2022-12-24T06:59:59.905Z,2.55
2022-12-24T07:02:27.921Z,2.10
2022-12-24T07:04:55.735Z,3.72
2022-12-24T07:07:23.449Z,2.20
2022-12-24T07:09:51.162Z,2.33
2022-12-24T07:12:20.187Z,1.88
2022-12-24T07:14:47.864Z,2.00
2022-12-24T07:17:15.672Z,2.53
2022-12-24T07:19:44.443Z,2.95
2022-12-24T07:22:15.743Z,2.80
2022-12-24T07:24:47.888Z,1.98
2022-12-24T07:27:16.016Z,2.55
2022-12-24T07:29:45.170Z,3.28
2022-12-24T07:32:12.889Z,2.50
2022-12-24T07:34:40.610Z,3.42
2022-12-24T07:37:09.144Z,2.00
2022-12-24T07:39:36.894Z,3.00
2022-12-24T07:42:05.785Z,1.80
2022-12-24T07:44:36.615Z,2.53
2022-12-24T07:47:05.765Z,2.55
2022-12-24T07:49:33.565Z,3.08
2022-12-24T07:52:01.252Z,2.00
2022-12-24T07:54:29.257Z,2.00
2022-12-24T07:56:57.028Z,2.58
2022-12-24T07:59:24.909Z,3.10
2022-12-24T08:01:52.802Z,1.92
2022-12-24T08:04:21.951Z,3.03
2022-12-24T08:06:49.819Z,3.85
2022-12-24T08:09:17.700Z,2.08
2022-12-24T08:11:51.711Z,2.80
2022-12-24T08:14:20.271Z,2.50
2022-12-24T08:16:48.260Z,3.90
2022-12-24T08:19:17.391Z,3.97
2022-12-24T08:21:46.457Z,5.88
2022-12-24T08:24:14.386Z,2.25
2022-12-24T08:26:42.374Z,2.05
2022-12-24T08:29:10.326Z,2.47
2022-12-24T08:31:38.193Z,2.92
2022-12-24T08:34:08.914Z,3.55
2022-12-24T08:36:36.665Z,3.80
2022-12-24T08:39:08.753Z,2.53
2022-12-24T08:41:36.819Z,2.25
2022-12-24T08:44:04.717Z,3.30
2022-12-24T08:46:32.498Z,2.00
2022-12-24T08:49:00.186Z,3.38
2022-12-24T08:51:27.933Z,2.30
2022-12-24T08:53:55.627Z,2.30
2022-12-24T08:56:25.002Z,2.90
2022-12-24T08:58:52.697Z,2.70
2022-12-24T09:01:21.472Z,2.50
2022-12-24T09:03:51.767Z,2.70
2022-12-24T09:06:19.544Z,2.38
2022-12-24T09:08:47.376Z,3.10
2022-12-24T09:11:17.681Z,2.33
2022-12-24T09:13:47.143Z,1.92
2022-12-24T09:16:14.973Z,3.38
2022-12-24T09:18:43.788Z,2.17
2022-12-24T09:21:15.149Z,1.92
2022-12-24T09:23:45.383Z,2.50
2022-12-24T09:26:15.577Z,2.08
2022-12-24T09:28:43.316Z,2.05
2022-12-24T09:31:13.607Z,1.75
2022-12-24T09:33:43.349Z,3.20
2022-12-24T09:36:11.390Z,4.25
2022-12-24T09:38:40.543Z,2.28
2022-12-24T09:41:26.063Z,3.38
2022-12-24T09:44:00.145Z,3.20
2022-12-24T09:46:33.304Z,2.25
2022-12-24T09:49:05.401Z,3.95
2022-12-24T09:51:38.756Z,2.88
2022-12-24T09:54:13.904Z,2.25
2022-12-24T09:56:46.086Z,2.08
2022-12-24T09:59:16.896Z,2.15
2022-12-24T10:01:46.053Z,2.80
2022-12-24T10:04:15.954Z,2.10
2022-12-24T10:06:53.132Z,3.08
2022-12-24T10:09:30.705Z,2.70
2022-12-24T10:12:10.379Z,1.80
2022-12-24T10:14:52.075Z,3.35
2022-12-24T10:17:33.095Z,4.22
2022-12-24T10:20:19.570Z,2.50
2022-12-24T10:22:56.233Z,3.10
2022-12-24T10:25:29.359Z,2.25
2022-12-24T10:28:00.817Z,2.17
2022-12-24T10:30:29.219Z,2.42
2022-12-24T10:32:58.233Z,2.75
2022-12-24T10:35:30.010Z,2.13
2022-12-24T10:37:58.328Z,2.95
2022-12-24T10:40:33.089Z,3.10
2022-12-24T10:43:01.359Z,4.50
2022-12-24T10:45:38.395Z,3.42
2022-12-24T10:48:15.751Z,4.65
2022-12-24T10:50:52.729Z,2.83
2022-12-24T10:53:25.313Z,4.20
2022-12-24T10:56:03.006Z,2.55
2022-12-24T10:58:31.374Z,2.53
2022-12-24T11:00:59.297Z,2.70
2022-12-24T11:03:33.160Z,2.58
2022-12-24T11:06:04.915Z,2.55
2022-12-24T11:08:33.835Z,2.97
2022-12-24T11:11:03.376Z,2.72
2022-12-24T11:13:38.755Z,3.05
2022-12-24T11:16:11.426Z,2.40
2022-12-24T11:18:51.303Z,3.05
2022-12-24T11:21:23.350Z,3.53
2022-12-24T11:23:53.748Z,2.92
2022-12-24T11:26:24.226Z,2.40
2022-12-24T11:29:06.859Z,4.15
2022-12-24T11:31:37.792Z,2.55
2022-12-24T11:34:24.278Z,2.10
2022-12-24T11:36:53.878Z,2.63
2022-12-24T11:39:23.799Z,2.80
2022-12-24T11:41:54.043Z,2.08
2022-12-24T11:44:26.625Z,3.13
2022-12-24T11:46:57.381Z,1.80
2022-12-24T11:49:30.070Z,1.85
2022-12-24T11:52:15.796Z,2.70
2022-12-24T11:54:51.681Z,1.70
2022-12-24T11:57:25.035Z,2.40
2022-12-24T11:59:53.029Z,2.47
2022-12-24T12:02:24.790Z,1.90
2022-12-24T12:04:58.791Z,2.55
2022-12-24T12:07:30.743Z,1.90
2022-12-24T12:10:03.797Z,4.43
2022-12-24T12:12:34.856Z,3.00
2022-12-24T12:15:06.035Z,2.70
2022-12-24T12:17:37.316Z,2.80
2022-12-24T12:20:13.769Z,2.85
2022-12-24T12:22:49.545Z,2.92
2022-12-24T12:25:22.789Z,3.80
2022-12-24T12:27:53.748Z,2.22
2022-12-24T12:30:24.239Z,3.10
2022-12-24T12:32:59.865Z,2.67
2022-12-24T12:35:32.818Z,2.88
2022-12-24T12:38:03.041Z,2.25
2022-12-24T12:40:44.979Z,2.67
2022-12-24T12:43:28.606Z,2.50
2022-12-24T12:46:03.849Z,2.40
2022-12-24T12:48:56.945Z,3.13
2022-12-24T12:51:38.752Z,3.42
2022-12-24T12:54:25.167Z,2.25
2022-12-24T12:56:55.740Z,2.10
2022-12-24T12:59:33.448Z,2.15
2022-12-24T13:02:14.987Z,1.80
2022-12-24T13:05:15.405Z,1.80
2022-12-24T13:08:02.313Z,2.70
2022-12-24T13:10:58.854Z,2.33
2022-12-24T13:13:51.696Z,2.13
2022-12-24T13:16:38.634Z,2.22
2022-12-24T13:19:21.605Z,2.72
2022-12-24T13:21:50.310Z,1.92
2022-12-24T13:24:22.409Z,2.75
2022-12-24T13:27:07.181Z,1.98
2022-12-24T13:29:43.805Z,2.60
2022-12-24T13:32:41.309Z,2.25
2022-12-24T13:35:37.449Z,2.45
2022-12-24T13:38:35.647Z,2.40
2022-12-24T13:41:38.754Z,1.98
2022-12-24T13:44:32.621Z,2.60
2022-12-24T13:47:05.368Z,2.60
2022-12-24T13:49:36.455Z,1.90
2022-12-24T13:52:22.449Z,3.95
2022-12-24T13:55:03.785Z,2.42
2022-12-24T13:57:36.827Z,3.03
2022-12-24T14:00:09.896Z,2.30
2022-12-24T14:02:47.999Z,2.83
2022-12-24T14:05:21.768Z,5.45
2022-12-24T14:07:52.079Z,1.92
2022-12-24T14:10:24.227Z,2.95
2022-12-24T14:12:55.392Z,2.15
2022-12-24T14:15:46.855Z,2.20
2022-12-24T14:18:18.962Z,1.63
2022-12-24T14:20:50.075Z,1.83
2022-12-24T14:23:27.605Z,1.90
2022-12-24T14:25:55.385Z,3.25
2022-12-24T14:28:28.863Z,2.13
2022-12-24T14:31:03.260Z,1.70
2022-12-24T14:33:31.241Z,3.10
2022-12-24T14:35:59.982Z,2.10
2022-12-24T14:38:28.987Z,2.30
2022-12-24T14:41:03.465Z,2.70
2022-12-24T14:43:44.144Z,1.90
2022-12-24T14:46:18.257Z,2.70
2022-12-24T14:48:53.008Z,2.38
2022-12-24T14:51:28.795Z,5.20
2022-12-24T14:54:14.245Z,4.72
2022-12-24T14:56:41.994Z,2.60
2022-12-24T14:59:18.204Z,2.05
2022-12-24T15:01:47.932Z,2.53
2022-12-24T15:04:17.932Z,2.35
2022-12-24T15:06:49.245Z,4.57
2022-12-24T15:09:21.013Z,3.13
2022-12-24T15:11:51.366Z,2.47
2022-12-24T15:14:21.585Z,16.60
2022-12-24T15:16:55.974Z,9.73
2022-12-24T15:19:27.859Z,4.05
2022-12-24T15:21:56.504Z,3.22
2022-12-24T15:24:26.413Z,3.28
2022-12-24T15:26:54.981Z,3.45
2022-12-24T15:29:26.993Z,3.13
2022-12-24T15:31:57.811Z,3.10
2022-12-24T15:34:28.783Z,3.97
2022-12-24T15:37:04.208Z,3.60
2022-12-24T15:39:32.367Z,3.40
2022-12-24T15:42:14.313Z,3.50
2022-12-24T15:44:44.768Z,2.72
2022-12-24T15:47:21.953Z,2.60
2022-12-24T15:49:52.177Z,3.80
2022-12-24T15:52:24.844Z,3.13
2022-12-24T15:54:58.182Z,3.45
2022-12-24T15:57:30.751Z,2.50
2022-12-24T16:00:00.769Z,3.05
2022-12-24T16:02:49.333Z,3.72
2022-12-24T16:05:34.099Z,2.50
2022-12-24T16:08:07.899Z,3.15
2022-12-24T16:10:38.746Z,3.85
2022-12-24T16:13:14.710Z,3.80
2022-12-24T16:15:47.656Z,6.28
2022-12-24T16:18:22.847Z,4.78
2022-12-24T16:20:52.329Z,3.10
2022-12-24T16:23:23.270Z,3.50
2022-12-24T16:25:52.697Z,5.68
2022-12-24T16:28:22.801Z,4.20
2022-12-24T16:30:51.294Z,4.28
2022-12-24T16:33:23.285Z,3.63
2022-12-24T16:35:51.037Z,4.10
2022-12-24T16:38:18.736Z,3.72
2022-12-24T16:40:46.525Z,4.00
2022-12-24T16:43:28.575Z,4.43
2022-12-24T16:46:01.804Z,4.07
2022-12-24T16:48:31.177Z,4.63
2022-12-24T16:50:58.851Z,7.13
2022-12-24T16:53:26.542Z,5.07
2022-12-24T16:55:55.410Z,5.65
2022-12-24T16:58:23.087Z,5.50
2022-12-24T17:00:50.944Z,5.88
2022-12-24T17:03:18.714Z,6.07
2022-12-24T17:05:47.827Z,5.30
2022-12-24T17:08:15.687Z,6.30
2022-12-24T17:10:50.981Z,6.45
2022-12-24T17:13:18.748Z,6.00
2022-12-24T17:15:46.470Z,5.95
2022-12-24T17:18:14.149Z,5.30
2022-12-24T17:20:41.913Z,5.35
2022-12-24T17:23:11.100Z,5.70
2022-12-24T17:25:38.909Z,6.60
2022-12-24T17:28:06.617Z,6.22
2022-12-24T17:30:34.322Z,5.43
2022-12-24T17:33:02.143Z,6.53
2022-12-24T17:35:29.921Z,6.70
2022-12-24T17:37:57.634Z,4.95
2022-12-24T17:40:30.962Z,4.60
2022-12-24T17:42:59.053Z,5.47
2022-12-24T17:45:27.285Z,5.30
2022-12-24T17:47:54.989Z,8.80
2022-12-24T17:50:22.829Z,5.72
2022-12-24T17:52:50.550Z,5.85
2022-12-24T17:55:18.602Z,7.63
2022-12-24T17:57:47.593Z,6.13
2022-12-24T18:00:16.701Z,6.35
2022-12-24T18:02:44.589Z,7.03
2022-12-24T18:05:12.408Z,5.95
2022-12-24T18:07:40.078Z,7.60
2022-12-24T18:10:08.794Z,5.47
2022-12-24T18:12:36.525Z,6.85
2022-12-24T18:15:06.340Z,6.05
2022-12-24T18:17:34.717Z,5.53
2022-12-24T18:20:02.382Z,5.70
2022-12-24T18:22:30.195Z,5.20
2022-12-24T18:24:57.976Z,5.75
2022-12-24T18:27:25.661Z,5.00
2022-12-24T18:29:53.345Z,5.05
2022-12-24T18:32:22.366Z,6.07
2022-12-24T18:34:51.935Z,5.20
2022-12-24T18:37:19.683Z,4.78
2022-12-24T18:39:47.467Z,6.88
2022-12-24T18:42:15.123Z,4.68
2022-12-24T18:44:42.977Z,5.63
2022-12-24T18:47:10.704Z,5.40
2022-12-24T18:49:40.025Z,8.02
2022-12-24T18:52:10.040Z,5.65
2022-12-24T18:54:37.799Z,6.40
2022-12-24T18:57:05.653Z,5.97
2022-12-24T18:59:33.807Z,5.95
2022-12-24T19:02:01.577Z,5.57
2022-12-24T19:04:29.741Z,5.53
2022-12-24T19:07:00.286Z,6.95
2022-12-24T19:09:28.109Z,5.30
2022-12-24T19:11:55.818Z,5.93
2022-12-24T19:14:23.500Z,5.10
2022-12-24T19:16:52.733Z,6.20
2022-12-24T19:19:23.857Z,4.95
2022-12-24T19:21:51.810Z,5.53
2022-12-24T19:24:20.864Z,6.20
2022-12-24T19:26:49.693Z,6.75
2022-12-24T19:29:17.462Z,5.47
2022-12-24T19:31:47.341Z,5.50
2022-12-24T19:34:16.092Z,6.25
2022-12-24T19:36:43.868Z,5.93
2022-12-24T19:39:11.574Z,6.75
2022-12-24T19:41:40.617Z,7.20
2022-12-24T19:44:08.319Z,7.55
2022-12-24T19:46:37.936Z,7.95
2022-12-24T19:49:07.960Z,7.80
2022-12-24T19:51:36.311Z,8.20
2022-12-24T19:54:05.792Z,8.80
2022-12-24T19:56:34.232Z,7.00
2022-12-24T19:59:04.096Z,7.38
2022-12-24T20:01:34.374Z,6.55
2022-12-24T20:04:04.666Z,6.90
2022-12-24T20:06:35.432Z,8.77
2022-12-24T20:09:05.681Z,7.40
2022-12-24T20:11:34.324Z,7.85
2022-12-24T20:14:05.140Z,11.40
2022-12-24T20:16:33.152Z,8.50
2022-12-24T20:19:03.747Z,20.60
2022-12-24T20:21:32.119Z,7.95
2022-12-24T20:24:00.295Z,7.60
2022-12-24T20:26:30.428Z,6.90
2022-12-24T20:28:58.121Z,6.60
2022-12-24T20:31:29.333Z,6.57
2022-12-24T20:33:58.454Z,6.68
2022-12-24T20:36:27.417Z,7.05
2022-12-24T20:38:55.860Z,7.95
2022-12-24T20:41:25.201Z,5.72
2022-12-24T20:43:53.294Z,5.53
2022-12-24T20:46:23.410Z,5.60
2022-12-24T20:48:53.123Z,6.03
2022-12-24T20:51:24.789Z,5.60
2022-12-24T20:53:53.852Z,5.40
2022-12-24T20:56:21.692Z,4.80
2022-12-24T20:58:51.585Z,7.00
2022-12-24T21:01:22.706Z,6.45
2022-12-24T21:03:54.377Z,7.75
2022-12-24T21:06:22.523Z,6.55
2022-12-24T21:08:51.075Z,5.18
2022-12-24T21:11:33.582Z,4.05
2022-12-24T21:14:02.411Z,4.55
2022-12-24T21:16:30.522Z,5.18
2022-12-24T21:18:59.758Z,4.00
2022-12-24T21:21:27.683Z,4.68
2022-12-24T21:23:55.688Z,5.82
2022-12-24T21:26:23.456Z,4.50
2022-12-24T21:28:51.201Z,3.45
2022-12-24T21:31:19.191Z,2.88
2022-12-24T21:33:47.291Z,6.30
2022-12-24T21:36:17.616Z,3.33
2022-12-24T21:38:45.697Z,3.10
2022-12-24T21:41:15.548Z,4.05
2022-12-24T21:43:44.420Z,5.40
2022-12-24T21:46:13.772Z,4.70
2022-12-24T21:48:55.939Z,4.55
2022-12-24T21:51:27.394Z,5.93
2022-12-24T21:54:09.862Z,5.75
2022-12-24T21:56:57.839Z,5.47
2022-12-24T21:59:26.996Z,6.15
2022-12-24T22:01:55.535Z,5.75
2022-12-24T22:04:23.482Z,11.68
2022-12-24T22:07:06.943Z,6.00
2022-12-24T22:09:49.689Z,4.35
2022-12-24T22:12:17.365Z,4.68
2022-12-24T22:14:45.136Z,3.75
2022-12-24T22:17:12.841Z,3.75
2022-12-24T22:19:40.554Z,4.80
2022-12-24T22:22:10.045Z,4.90
2022-12-24T22:24:37.749Z,3.60
2022-12-24T22:27:05.475Z,3.30
2022-12-24T22:29:33.329Z,2.85
2022-12-24T22:32:01.055Z,4.50
2022-12-24T22:34:28.872Z,3.22
2022-12-24T22:36:56.536Z,3.03
2022-12-24T22:39:25.751Z,2.50
2022-12-24T22:41:53.592Z,3.00
2022-12-24T22:44:21.337Z,2.35
2022-12-24T22:46:49.070Z,2.58
2022-12-24T22:49:16.875Z,3.00
2022-12-24T22:51:44.575Z,8.10
2022-12-24T22:54:12.381Z,3.60
2022-12-24T22:56:41.963Z,2.13
2022-12-24T22:59:13.076Z,1.75
2022-12-24T23:01:43.054Z,1.88
2022-12-24T23:04:11.632Z,1.38
2022-12-24T23:06:40.380Z,1.50
2022-12-24T23:09:09.772Z,1.45
2022-12-24T23:11:37.563Z,1.30
2022-12-24T23:14:20.647Z,1.73
2022-12-24T23:16:48.345Z,1.23
2022-12-24T23:19:16.395Z,1.63
2022-12-24T23:21:44.057Z,1.63
2022-12-24T23:24:12.282Z,1.90
2022-12-24T23:26:39.951Z,2.90
2022-12-24T23:29:08.968Z,1.45
2022-12-24T23:31:37.630Z,2.00
2022-12-24T23:34:05.573Z,2.30
2022-12-24T23:36:33.307Z,1.80
2022-12-24T23:39:01.009Z,1.92
2022-12-24T23:41:28.700Z,2.55
2022-12-24T23:43:56.387Z,3.00
2022-12-24T23:46:25.479Z,2.58
2022-12-24T23:48:55.420Z,2.50
2022-12-24T23:51:25.091Z,3.65
2022-12-24T23:53:53.807Z,3.50
2022-12-24T23:56:22.337Z,2.30
2022-12-24T23:58:50.144Z,2.63
